sensor_id;sensor_type;location;lat;lon;timestamp;temperature;humidity
64796;DHT22;51229;51.980;6.722;2023-04-01T00:01:46;5.80;99.90
64796;DHT22;51229;51.980;6.722;2023-04-01T00:04:11;5.90;99.90
64796;DHT22;51229;51.980;6.722;2023-04-01T00:06:37;5.80;99.90
64796;DHT22;51229;51.980;6.722;2023-04-01T00:09:03;5.80;99.90
64796;DHT22;51229;51.980;6.722;2023-04-01T00:11:29;5.80;99.90
64796;DHT22;51229;51.980;6.722;2023-04-01T00:13:54;5.80;99.90
64796;DHT22;51229;51.980;6.722;2023-04-01T00:16:20;5.90;99.90
64796;DHT22;51229;51.980;6.722;2023-04-01T00:18:47;5.90;99.90
64796;DHT22;51229;51.980;6.722;2023-04-01T00:21:13;5.90;99.90
64796;DHT22;51229;51.980;6.722;2023-04-01T00:23:39;5.80;99.90
64796;DHT22;51229;51.980;6.722;2023-04-01T00:26:04;5.80;99.90
64796;DHT22;51229;51.980;6.722;2023-04-01T00:28:31;5.80;99.90
64796;DHT22;51229;51.980;6.722;2023-04-01T00:30:56;5.70;99.90
64796;DHT22;51229;51.980;6.722;2023-04-01T00:33:22;5.80;99.90
64796;DHT22;51229;51.980;6.722;2023-04-01T00:35:48;5.80;99.90
64796;DHT22;51229;51.980;6.722;2023-04-01T00:38:14;5.80;99.90
64796;DHT22;51229;51.980;6.722;2023-04-01T00:40:44;5.70;99.90
64796;DHT22;51229;51.980;6.722;2023-04-01T00:43:20;5.80;99.90
64796;DHT22;51229;51.980;6.722;2023-04-01T00:45:48;5.80;99.90
64796;DHT22;51229;51.980;6.722;2023-04-01T00:48:20;5.70;99.90
64796;DHT22;51229;51.980;6.722;2023-04-01T00:51:11;5.70;99.90
64796;DHT22;51229;51.980;6.722;2023-04-01T00:53:43;5.70;99.90
64796;DHT22;51229;51.980;6.722;2023-04-01T00:56:10;5.80;99.90
64796;DHT22;51229;51.980;6.722;2023-04-01T00:58:41;5.80;99.90
64796;DHT22;51229;51.980;6.722;2023-04-01T01:01:08;5.80;99.90
64796;DHT22;51229;51.980;6.722;2023-04-01T01:03:35;5.70;99.90
64796;DHT22;51229;51.980;6.722;2023-04-01T01:11:52;5.70;99.90
64796;DHT22;51229;51.980;6.722;2023-04-01T01:19:57;5.70;99.90
64796;DHT22;51229;51.980;6.722;2023-04-01T01:31:21;5.70;99.90
64796;DHT22;51229;51.980;6.722;2023-04-01T01:34:07;5.80;99.90
64796;DHT22;51229;51.980;6.722;2023-04-01T01:36:38;5.70;99.90
64796;DHT22;51229;51.980;6.722;2023-04-01T01:39:09;5.70;99.90
64796;DHT22;51229;51.980;6.722;2023-04-01T01:41:36;5.70;99.90
64796;DHT22;51229;51.980;6.722;2023-04-01T01:44:07;5.70;99.90
64796;DHT22;51229;51.980;6.722;2023-04-01T01:46:33;5.80;99.90
64796;DHT22;51229;51.980;6.722;2023-04-01T01:49:00;5.80;99.90
64796;DHT22;51229;51.980;6.722;2023-04-01T01:51:28;5.80;99.90
64796;DHT22;51229;51.980;6.722;2023-04-01T01:53:54;5.80;99.90
64796;DHT22;51229;51.980;6.722;2023-04-01T01:56:26;5.70;99.90
64796;DHT22;51229;51.980;6.722;2023-04-01T01:58:58;5.80;99.90
64796;DHT22;51229;51.980;6.722;2023-04-01T02:01:31;5.70;99.90
64796;DHT22;51229;51.980;6.722;2023-04-01T02:04:05;5.80;99.90
64796;DHT22;51229;51.980;6.722;2023-04-01T02:06:35;5.70;99.90
64796;DHT22;51229;51.980;6.722;2023-04-01T02:09:07;5.70;99.90
64796;DHT22;51229;51.980;6.722;2023-04-01T02:11:52;5.80;99.90
64796;DHT22;51229;51.980;6.722;2023-04-01T02:14:34;5.70;99.90
64796;DHT22;51229;51.980;6.722;2023-04-01T02:17:29;5.70;99.90
64796;DHT22;51229;51.980;6.722;2023-04-01T02:20:06;5.80;99.90
64796;DHT22;51229;51.980;6.722;2023-04-01T02:22:41;5.80;99.90
64796;DHT22;51229;51.980;6.722;2023-04-01T02:25:13;5.80;99.90
64796;DHT22;51229;51.980;6.722;2023-04-01T02:27:40;5.80;99.90
64796;DHT22;51229;51.980;6.722;2023-04-01T02:30:08;5.80;99.90
64796;DHT22;51229;51.980;6.722;2023-04-01T02:32:35;5.80;99.90
64796;DHT22;51229;51.980;6.722;2023-04-01T02:35:06;5.80;99.90
64796;DHT22;51229;51.980;6.722;2023-04-01T02:37:32;5.80;99.90
64796;DHT22;51229;51.980;6.722;2023-04-01T02:40:03;5.80;99.90
64796;DHT22;51229;51.980;6.722;2023-04-01T02:42:30;5.80;99.90
64796;DHT22;51229;51.980;6.722;2023-04-01T02:44:55;5.80;99.90
64796;DHT22;51229;51.980;6.722;2023-04-01T02:47:21;5.80;99.90
64796;DHT22;51229;51.980;6.722;2023-04-01T02:49:47;5.80;99.90
64796;DHT22;51229;51.980;6.722;2023-04-01T02:52:12;5.80;99.90
64796;DHT22;51229;51.980;6.722;2023-04-01T02:54:38;5.80;99.90
64796;DHT22;51229;51.980;6.722;2023-04-01T02:57:04;5.80;99.90
64796;DHT22;51229;51.980;6.722;2023-04-01T02:59:29;5.80;99.90
64796;DHT22;51229;51.980;6.722;2023-04-01T03:01:55;5.80;99.90
64796;DHT22;51229;51.980;6.722;2023-04-01T03:04:21;5.80;99.90
64796;DHT22;51229;51.980;6.722;2023-04-01T03:06:46;5.80;99.90
64796;DHT22;51229;51.980;6.722;2023-04-01T03:09:12;5.80;99.90
64796;DHT22;51229;51.980;6.722;2023-04-01T03:11:38;5.80;99.90
64796;DHT22;51229;51.980;6.722;2023-04-01T03:14:03;5.80;99.90
64796;DHT22;51229;51.980;6.722;2023-04-01T03:16:29;5.80;99.90
64796;DHT22;51229;51.980;6.722;2023-04-01T03:18:55;5.70;99.90
64796;DHT22;51229;51.980;6.722;2023-04-01T03:21:24;5.80;99.90
64796;DHT22;51229;51.980;6.722;2023-04-01T03:23:50;5.80;99.90
64796;DHT22;51229;51.980;6.722;2023-04-01T03:26:16;5.80;99.90
64796;DHT22;51229;51.980;6.722;2023-04-01T03:28:42;5.80;99.90
64796;DHT22;51229;51.980;6.722;2023-04-01T03:31:08;5.80;99.90
64796;DHT22;51229;51.980;6.722;2023-04-01T03:33:40;5.70;99.90
64796;DHT22;51229;51.980;6.722;2023-04-01T03:36:06;5.70;99.90
64796;DHT22;51229;51.980;6.722;2023-04-01T03:38:34;5.80;99.90
64796;DHT22;51229;51.980;6.722;2023-04-01T03:40:59;5.90;99.90
64796;DHT22;51229;51.980;6.722;2023-04-01T03:43:25;5.80;99.90
64796;DHT22;51229;51.980;6.722;2023-04-01T03:45:52;5.80;99.90
64796;DHT22;51229;51.980;6.722;2023-04-01T03:48:18;5.80;99.90
64796;DHT22;51229;51.980;6.722;2023-04-01T03:50:44;5.80;99.90
64796;DHT22;51229;51.980;6.722;2023-04-01T03:53:10;5.80;99.90
64796;DHT22;51229;51.980;6.722;2023-04-01T03:55:39;5.80;99.90
64796;DHT22;51229;51.980;6.722;2023-04-01T03:58:06;5.80;99.90
64796;DHT22;51229;51.980;6.722;2023-04-01T04:00:33;5.70;99.90
64796;DHT22;51229;51.980;6.722;2023-04-01T04:02:59;5.80;99.90
64796;DHT22;51229;51.980;6.722;2023-04-01T04:05:30;5.70;99.90
64796;DHT22;51229;51.980;6.722;2023-04-01T04:07:56;5.70;99.90
64796;DHT22;51229;51.980;6.722;2023-04-01T04:10:22;5.80;99.90
64796;DHT22;51229;51.980;6.722;2023-04-01T04:12:50;5.70;99.90
64796;DHT22;51229;51.980;6.722;2023-04-01T04:15:17;5.70;99.90
64796;DHT22;51229;51.980;6.722;2023-04-01T04:17:44;5.70;99.90
64796;DHT22;51229;51.980;6.722;2023-04-01T04:20:10;5.70;99.90
64796;DHT22;51229;51.980;6.722;2023-04-01T04:22:36;5.70;99.90
64796;DHT22;51229;51.980;6.722;2023-04-01T04:25:07;5.70;99.90
64796;DHT22;51229;51.980;6.722;2023-04-01T04:27:33;5.70;99.90
64796;DHT22;51229;51.980;6.722;2023-04-01T04:30:08;5.70;99.90
64796;DHT22;51229;51.980;6.722;2023-04-01T04:32:34;5.70;99.90
64796;DHT22;51229;51.980;6.722;2023-04-01T04:35:00;5.70;99.90
64796;DHT22;51229;51.980;6.722;2023-04-01T04:37:26;5.70;99.90
64796;DHT22;51229;51.980;6.722;2023-04-01T04:39:52;5.60;99.90
64796;DHT22;51229;51.980;6.722;2023-04-01T04:42:19;5.80;99.90
64796;DHT22;51229;51.980;6.722;2023-04-01T04:44:45;5.80;99.90
64796;DHT22;51229;51.980;6.722;2023-04-01T04:47:10;5.70;99.90
64796;DHT22;51229;51.980;6.722;2023-04-01T04:49:36;5.70;99.90
64796;DHT22;51229;51.980;6.722;2023-04-01T04:52:06;5.70;99.90
64796;DHT22;51229;51.980;6.722;2023-04-01T04:54:32;5.60;99.90
64796;DHT22;51229;51.980;6.722;2023-04-01T04:57:00;5.60;99.90
64796;DHT22;51229;51.980;6.722;2023-04-01T04:59:28;5.60;99.90
64796;DHT22;51229;51.980;6.722;2023-04-01T05:02:17;5.60;99.90
64796;DHT22;51229;51.980;6.722;2023-04-01T05:04:42;5.60;99.90
64796;DHT22;51229;51.980;6.722;2023-04-01T05:07:09;5.60;99.90
64796;DHT22;51229;51.980;6.722;2023-04-01T05:09:35;5.60;99.90
64796;DHT22;51229;51.980;6.722;2023-04-01T05:12:02;5.70;99.90
64796;DHT22;51229;51.980;6.722;2023-04-01T05:14:36;5.70;99.90
64796;DHT22;51229;51.980;6.722;2023-04-01T05:17:11;5.60;99.90
64796;DHT22;51229;51.980;6.722;2023-04-01T05:19:38;5.60;99.90
64796;DHT22;51229;51.980;6.722;2023-04-01T05:22:05;5.70;99.90
64796;DHT22;51229;51.980;6.722;2023-04-01T05:24:32;5.60;99.90
64796;DHT22;51229;51.980;6.722;2023-04-01T05:26:58;5.60;99.90
64796;DHT22;51229;51.980;6.722;2023-04-01T05:29:25;5.70;99.90
64796;DHT22;51229;51.980;6.722;2023-04-01T05:31:57;5.60;99.90
64796;DHT22;51229;51.980;6.722;2023-04-01T05:34:23;5.60;99.90
64796;DHT22;51229;51.980;6.722;2023-04-01T05:36:48;5.60;99.90
64796;DHT22;51229;51.980;6.722;2023-04-01T05:39:18;5.60;99.90
64796;DHT22;51229;51.980;6.722;2023-04-01T05:41:44;5.60;99.90
64796;DHT22;51229;51.980;6.722;2023-04-01T05:44:12;5.60;99.90
64796;DHT22;51229;51.980;6.722;2023-04-01T05:46:57;5.50;99.90
64796;DHT22;51229;51.980;6.722;2023-04-01T05:49:25;5.60;99.90
64796;DHT22;51229;51.980;6.722;2023-04-01T05:51:51;5.60;99.90
64796;DHT22;51229;51.980;6.722;2023-04-01T05:54:18;5.50;99.90
64796;DHT22;51229;51.980;6.722;2023-04-01T05:56:44;5.60;99.90
64796;DHT22;51229;51.980;6.722;2023-04-01T05:59:11;5.60;99.90
64796;DHT22;51229;51.980;6.722;2023-04-01T06:01:37;5.50;99.90
64796;DHT22;51229;51.980;6.722;2023-04-01T06:04:03;5.50;99.90
64796;DHT22;51229;51.980;6.722;2023-04-01T06:06:31;5.60;99.90
64796;DHT22;51229;51.980;6.722;2023-04-01T06:09:17;5.60;99.90
64796;DHT22;51229;51.980;6.722;2023-04-01T06:31:43;5.60;99.90
64796;DHT22;51229;51.980;6.722;2023-04-01T06:46:51;5.60;99.90
64796;DHT22;51229;51.980;6.722;2023-04-01T06:53:00;5.70;99.90
64796;DHT22;51229;51.980;6.722;2023-04-01T06:55:55;5.70;99.90
64796;DHT22;51229;51.980;6.722;2023-04-01T06:58:38;5.80;99.90
64796;DHT22;51229;51.980;6.722;2023-04-01T07:01:12;5.70;99.90
64796;DHT22;51229;51.980;6.722;2023-04-01T07:03:51;5.60;99.90
64796;DHT22;51229;51.980;6.722;2023-04-01T07:06:39;5.60;99.90
64796;DHT22;51229;51.980;6.722;2023-04-01T07:09:11;5.70;99.90
64796;DHT22;51229;51.980;6.722;2023-04-01T07:15:17;5.80;99.90
64796;DHT22;51229;51.980;6.722;2023-04-01T07:17:45;5.80;99.90
64796;DHT22;51229;51.980;6.722;2023-04-01T07:20:20;5.80;99.90
64796;DHT22;51229;51.980;6.722;2023-04-01T07:22:49;5.90;99.90
64796;DHT22;51229;51.980;6.722;2023-04-01T07:25:38;5.90;99.90
64796;DHT22;51229;51.980;6.722;2023-04-01T07:28:30;6.00;99.90
64796;DHT22;51229;51.980;6.722;2023-04-01T07:34:06;6.00;99.90
64796;DHT22;51229;51.980;6.722;2023-04-01T07:36:42;6.00;99.90
64796;DHT22;51229;51.980;6.722;2023-04-01T07:39:27;6.00;99.90
64796;DHT22;51229;51.980;6.722;2023-04-01T07:42:09;6.00;99.90
64796;DHT22;51229;51.980;6.722;2023-04-01T07:47:37;6.00;99.90
64796;DHT22;51229;51.980;6.722;2023-04-01T07:56:05;6.00;99.90
64796;DHT22;51229;51.980;6.722;2023-04-01T08:04:35;6.10;99.90
64796;DHT22;51229;51.980;6.722;2023-04-01T08:07:13;6.10;99.90
64796;DHT22;51229;51.980;6.722;2023-04-01T08:21:48;6.40;99.90
64796;DHT22;51229;51.980;6.722;2023-04-01T08:24:26;6.40;99.90
64796;DHT22;51229;51.980;6.722;2023-04-01T08:26:59;6.40;99.90
64796;DHT22;51229;51.980;6.722;2023-04-01T08:29:51;6.40;99.90
64796;DHT22;51229;51.980;6.722;2023-04-01T08:32:25;6.50;99.90
64796;DHT22;51229;51.980;6.722;2023-04-01T08:37:38;6.50;99.90
64796;DHT22;51229;51.980;6.722;2023-04-01T08:40:39;6.60;99.90
64796;DHT22;51229;51.980;6.722;2023-04-01T08:52:10;6.60;99.90
64796;DHT22;51229;51.980;6.722;2023-04-01T09:00:25;6.80;99.90
64796;DHT22;51229;51.980;6.722;2023-04-01T09:12:15;7.10;99.90
64796;DHT22;51229;51.980;6.722;2023-04-01T09:23:15;7.00;99.90
64796;DHT22;51229;51.980;6.722;2023-04-01T09:28:38;7.10;99.90
64796;DHT22;51229;51.980;6.722;2023-04-01T09:31:17;7.20;99.90
64796;DHT22;51229;51.980;6.722;2023-04-01T09:42:53;7.20;99.90
64796;DHT22;51229;51.980;6.722;2023-04-01T09:45:32;7.20;99.90
64796;DHT22;51229;51.980;6.722;2023-04-01T09:48:24;7.10;99.90
64796;DHT22;51229;51.980;6.722;2023-04-01T09:51:37;7.10;99.90
64796;DHT22;51229;51.980;6.722;2023-04-01T09:54:14;7.20;99.90
64796;DHT22;51229;51.980;6.722;2023-04-01T10:00:06;7.30;99.90
64796;DHT22;51229;51.980;6.722;2023-04-01T10:06:07;7.50;99.90
64796;DHT22;51229;51.980;6.722;2023-04-01T10:26:33;7.50;99.90
64796;DHT22;51229;51.980;6.722;2023-04-01T10:44:00;7.70;99.90
64796;DHT22;51229;51.980;6.722;2023-04-01T10:47:11;7.70;99.90
64796;DHT22;51229;51.980;6.722;2023-04-01T10:50:13;8.00;99.90
64796;DHT22;51229;51.980;6.722;2023-04-01T10:53:10;8.10;99.90
64796;DHT22;51229;51.980;6.722;2023-04-01T10:56:39;8.10;99.90
64796;DHT22;51229;51.980;6.722;2023-04-01T11:06:09;8.00;99.90
64796;DHT22;51229;51.980;6.722;2023-04-01T11:11:55;8.00;99.90
64796;DHT22;51229;51.980;6.722;2023-04-01T11:17:27;8.10;99.90
64796;DHT22;51229;51.980;6.722;2023-04-01T11:20:28;8.10;99.90
64796;DHT22;51229;51.980;6.722;2023-04-01T11:37:27;8.20;99.90
64796;DHT22;51229;51.980;6.722;2023-04-01T11:46:22;8.30;99.90
64796;DHT22;51229;51.980;6.722;2023-04-01T11:51:52;8.30;99.90
64796;DHT22;51229;51.980;6.722;2023-04-01T11:54:58;8.30;99.90
64796;DHT22;51229;51.980;6.722;2023-04-01T11:58:01;8.40;99.90
64796;DHT22;51229;51.980;6.722;2023-04-01T12:00:48;8.40;99.90
64796;DHT22;51229;51.980;6.722;2023-04-01T12:06:30;8.50;99.90
64796;DHT22;51229;51.980;6.722;2023-04-01T12:12:23;8.50;99.90
64796;DHT22;51229;51.980;6.722;2023-04-01T12:18:17;8.60;99.90
64796;DHT22;51229;51.980;6.722;2023-04-01T12:20:50;8.70;99.90
64796;DHT22;51229;51.980;6.722;2023-04-01T12:26:43;8.50;99.90
64796;DHT22;51229;51.980;6.722;2023-04-01T12:32:19;8.30;99.90
64796;DHT22;51229;51.980;6.722;2023-04-01T12:38:04;8.30;99.90
64796;DHT22;51229;51.980;6.722;2023-04-01T12:40:41;8.20;99.90
64796;DHT22;51229;51.980;6.722;2023-04-01T12:46:05;8.30;99.90
64796;DHT22;51229;51.980;6.722;2023-04-01T12:54:48;8.40;99.90
64796;DHT22;51229;51.980;6.722;2023-04-01T13:02:50;8.50;99.90
64796;DHT22;51229;51.980;6.722;2023-04-01T13:05:30;8.50;99.90
64796;DHT22;51229;51.980;6.722;2023-04-01T13:08:07;8.50;99.90
64796;DHT22;51229;51.980;6.722;2023-04-01T13:16:54;8.50;99.90
64796;DHT22;51229;51.980;6.722;2023-04-01T13:22:25;8.50;99.90
64796;DHT22;51229;51.980;6.722;2023-04-01T13:24:59;8.50;99.90
64796;DHT22;51229;51.980;6.722;2023-04-01T13:27:34;8.50;99.90
64796;DHT22;51229;51.980;6.722;2023-04-01T13:32:44;8.50;99.90
64796;DHT22;51229;51.980;6.722;2023-04-01T13:35:35;8.50;99.90
64796;DHT22;51229;51.980;6.722;2023-04-01T13:43:57;8.50;99.90
64796;DHT22;51229;51.980;6.722;2023-04-01T14:05:59;8.70;99.90
64796;DHT22;51229;51.980;6.722;2023-04-01T14:11:55;8.70;99.90
64796;DHT22;51229;51.980;6.722;2023-04-01T14:14:52;8.70;99.90
64796;DHT22;51229;51.980;6.722;2023-04-01T14:17:30;8.70;99.90
64796;DHT22;51229;51.980;6.722;2023-04-01T14:20:25;8.70;99.90
64796;DHT22;51229;51.980;6.722;2023-04-01T14:29:02;8.80;99.90
64796;DHT22;51229;51.980;6.722;2023-04-01T14:37:40;8.80;99.90
64796;DHT22;51229;51.980;6.722;2023-04-01T14:46:45;8.70;99.90
64796;DHT22;51229;51.980;6.722;2023-04-01T14:51:54;8.50;99.90
64796;DHT22;51229;51.980;6.722;2023-04-01T14:54:35;8.30;99.90
64796;DHT22;51229;51.980;6.722;2023-04-01T15:00:09;8.40;99.90
64796;DHT22;51229;51.980;6.722;2023-04-01T15:03:01;8.30;99.90
64796;DHT22;51229;51.980;6.722;2023-04-01T15:05:49;8.40;99.90
64796;DHT22;51229;51.980;6.722;2023-04-01T15:08:29;8.30;99.90
64796;DHT22;51229;51.980;6.722;2023-04-01T15:17:31;8.20;99.90
64796;DHT22;51229;51.980;6.722;2023-04-01T15:31:41;8.30;99.90
64796;DHT22;51229;51.980;6.722;2023-04-01T15:34:42;8.30;99.90
64796;DHT22;51229;51.980;6.722;2023-04-01T15:37:18;8.40;99.90
64796;DHT22;51229;51.980;6.722;2023-04-01T15:41:01;8.40;99.90
64796;DHT22;51229;51.980;6.722;2023-04-01T15:44:00;8.40;99.90
64796;DHT22;51229;51.980;6.722;2023-04-01T15:49:01;8.30;99.90
64796;DHT22;51229;51.980;6.722;2023-04-01T16:00:45;8.20;99.90
64796;DHT22;51229;51.980;6.722;2023-04-01T16:03:34;8.20;99.90
64796;DHT22;51229;51.980;6.722;2023-04-01T16:06:33;8.00;99.90
64796;DHT22;51229;51.980;6.722;2023-04-01T16:09:37;8.00;99.90
64796;DHT22;51229;51.980;6.722;2023-04-01T16:12:19;8.00;99.90
64796;DHT22;51229;51.980;6.722;2023-04-01T16:17:54;8.10;99.90
64796;DHT22;51229;51.980;6.722;2023-04-01T16:20:51;8.10;99.90
64796;DHT22;51229;51.980;6.722;2023-04-01T16:23:26;8.10;99.90
64796;DHT22;51229;51.980;6.722;2023-04-01T16:26:05;8.10;99.90
64796;DHT22;51229;51.980;6.722;2023-04-01T16:28:32;8.10;99.90
64796;DHT22;51229;51.980;6.722;2023-04-01T16:36:54;8.00;99.90
64796;DHT22;51229;51.980;6.722;2023-04-01T16:39:36;7.90;99.90
64796;DHT22;51229;51.980;6.722;2023-04-01T16:44:52;7.70;99.90
64796;DHT22;51229;51.980;6.722;2023-04-01T16:47:49;7.50;99.90
64796;DHT22;51229;51.980;6.722;2023-04-01T16:50:24;7.70;99.90
64796;DHT22;51229;51.980;6.722;2023-04-01T16:53:09;7.80;99.90
64796;DHT22;51229;51.980;6.722;2023-04-01T16:58:24;7.40;99.90
64796;DHT22;51229;51.980;6.722;2023-04-01T17:01:01;7.60;99.90
64796;DHT22;51229;51.980;6.722;2023-04-01T17:03:33;7.60;99.90
64796;DHT22;51229;51.980;6.722;2023-04-01T17:06:20;7.60;99.90
64796;DHT22;51229;51.980;6.722;2023-04-01T17:11:23;7.30;99.90
64796;DHT22;51229;51.980;6.722;2023-04-01T17:23:30;7.00;99.90
64796;DHT22;51229;51.980;6.722;2023-04-01T17:28:57;7.00;99.90
64796;DHT22;51229;51.980;6.722;2023-04-01T17:34:18;6.90;99.90
64796;DHT22;51229;51.980;6.722;2023-04-01T17:40:20;7.10;99.90
64796;DHT22;51229;51.980;6.722;2023-04-01T17:45:36;6.90;99.90
64796;DHT22;51229;51.980;6.722;2023-04-01T17:51:06;6.90;99.90
64796;DHT22;51229;51.980;6.722;2023-04-01T17:53:51;7.00;99.90
64796;DHT22;51229;51.980;6.722;2023-04-01T17:59:16;6.80;99.90
64796;DHT22;51229;51.980;6.722;2023-04-01T18:07:53;6.80;99.90
64796;DHT22;51229;51.980;6.722;2023-04-01T18:11:03;6.70;99.90
64796;DHT22;51229;51.980;6.722;2023-04-01T18:22:29;6.60;99.90
64796;DHT22;51229;51.980;6.722;2023-04-01T18:27:44;6.70;99.90
64796;DHT22;51229;51.980;6.722;2023-04-01T18:30:18;6.60;99.90
64796;DHT22;51229;51.980;6.722;2023-04-01T18:36:23;6.50;99.90
64796;DHT22;51229;51.980;6.722;2023-04-01T18:39:12;6.30;99.90
64796;DHT22;51229;51.980;6.722;2023-04-01T18:44:56;6.50;99.90
64796;DHT22;51229;51.980;6.722;2023-04-01T18:47:47;6.00;99.90
64796;DHT22;51229;51.980;6.722;2023-04-01T18:53:13;6.20;99.90
64796;DHT22;51229;51.980;6.722;2023-04-01T18:55:49;6.10;99.90
64796;DHT22;51229;51.980;6.722;2023-04-01T19:06:44;6.00;99.90
64796;DHT22;51229;51.980;6.722;2023-04-01T19:09:19;5.90;99.90
64796;DHT22;51229;51.980;6.722;2023-04-01T19:11:57;5.90;99.90
64796;DHT22;51229;51.980;6.722;2023-04-01T19:17:25;5.70;99.90
64796;DHT22;51229;51.980;6.722;2023-04-01T19:22:54;5.80;99.90
64796;DHT22;51229;51.980;6.722;2023-04-01T19:26:11;5.60;99.90
64796;DHT22;51229;51.980;6.722;2023-04-01T19:28:56;5.80;99.90
64796;DHT22;51229;51.980;6.722;2023-04-01T19:50:57;6.00;99.90
64796;DHT22;51229;51.980;6.722;2023-04-01T19:53:46;5.80;99.90
64796;DHT22;51229;51.980;6.722;2023-04-01T19:56:20;5.70;99.90
64796;DHT22;51229;51.980;6.722;2023-04-01T19:59:10;5.60;99.90
64796;DHT22;51229;51.980;6.722;2023-04-01T20:01:48;5.20;99.90
64796;DHT22;51229;51.980;6.722;2023-04-01T20:04:25;5.10;99.90
64796;DHT22;51229;51.980;6.722;2023-04-01T20:07:20;5.20;99.90
64796;DHT22;51229;51.980;6.722;2023-04-01T20:10:13;5.40;99.90
64796;DHT22;51229;51.980;6.722;2023-04-01T20:13:08;5.00;99.90
64796;DHT22;51229;51.980;6.722;2023-04-01T20:15:41;5.50;99.90
64796;DHT22;51229;51.980;6.722;2023-04-01T20:18:50;5.40;99.90
64796;DHT22;51229;51.980;6.722;2023-04-01T20:23:50;5.10;99.90
64796;DHT22;51229;51.980;6.722;2023-04-01T20:26:37;5.00;99.90
64796;DHT22;51229;51.980;6.722;2023-04-01T20:35:12;5.00;99.90
64796;DHT22;51229;51.980;6.722;2023-04-01T20:37:45;4.70;99.90
64796;DHT22;51229;51.980;6.722;2023-04-01T20:40:40;4.80;99.90
64796;DHT22;51229;51.980;6.722;2023-04-01T21:03:09;4.60;99.90
64796;DHT22;51229;51.980;6.722;2023-04-01T21:05:50;4.70;99.90
64796;DHT22;51229;51.980;6.722;2023-04-01T21:08:47;4.50;99.90
64796;DHT22;51229;51.980;6.722;2023-04-01T21:19:44;4.20;99.90
64796;DHT22;51229;51.980;6.722;2023-04-01T21:25:01;4.40;99.90
64796;DHT22;51229;51.980;6.722;2023-04-01T21:28:25;4.60;99.90
64796;DHT22;51229;51.980;6.722;2023-04-01T21:31:10;4.70;99.90
64796;DHT22;51229;51.980;6.722;2023-04-01T21:36:56;5.00;99.90
64796;DHT22;51229;51.980;6.722;2023-04-01T22:05:11;4.30;99.90
64796;DHT22;51229;51.980;6.722;2023-04-01T22:10:41;4.00;99.90
64796;DHT22;51229;51.980;6.722;2023-04-01T22:19:04;4.40;99.90
64796;DHT22;51229;51.980;6.722;2023-04-01T22:21:45;4.50;99.90
64796;DHT22;51229;51.980;6.722;2023-04-01T22:30:06;4.00;99.90
64796;DHT22;51229;51.980;6.722;2023-04-01T22:32:44;4.00;99.90
64796;DHT22;51229;51.980;6.722;2023-04-01T22:35:24;3.90;99.90
64796;DHT22;51229;51.980;6.722;2023-04-01T22:38:03;3.80;99.90
64796;DHT22;51229;51.980;6.722;2023-04-01T22:43:08;3.90;99.90
64796;DHT22;51229;51.980;6.722;2023-04-01T22:46:08;4.00;99.90
64796;DHT22;51229;51.980;6.722;2023-04-01T22:49:03;4.00;99.90
64796;DHT22;51229;51.980;6.722;2023-04-01T22:51:43;4.30;99.90
64796;DHT22;51229;51.980;6.722;2023-04-01T22:54:42;3.90;99.90
64796;DHT22;51229;51.980;6.722;2023-04-01T22:57:28;3.80;99.90
64796;DHT22;51229;51.980;6.722;2023-04-01T23:00:44;3.80;99.90
64796;DHT22;51229;51.980;6.722;2023-04-01T23:03:28;3.90;99.90
64796;DHT22;51229;51.980;6.722;2023-04-01T23:06:00;3.50;99.90
64796;DHT22;51229;51.980;6.722;2023-04-01T23:11:26;4.00;99.90
64796;DHT22;51229;51.980;6.722;2023-04-01T23:14:05;4.00;99.90
64796;DHT22;51229;51.980;6.722;2023-04-01T23:16:40;4.00;99.90
64796;DHT22;51229;51.980;6.722;2023-04-01T23:19:21;4.00;99.90
64796;DHT22;51229;51.980;6.722;2023-04-01T23:21:54;3.50;99.90
64796;DHT22;51229;51.980;6.722;2023-04-01T23:24:33;3.30;99.90
64796;DHT22;51229;51.980;6.722;2023-04-01T23:27:28;3.60;99.90
64796;DHT22;51229;51.980;6.722;2023-04-01T23:29:51;3.30;99.90
64796;DHT22;51229;51.980;6.722;2023-04-01T23:32:27;3.30;99.90
64796;DHT22;51229;51.980;6.722;2023-04-01T23:34:58;3.10;99.90
64796;DHT22;51229;51.980;6.722;2023-04-01T23:37:25;3.70;99.90
64796;DHT22;51229;51.980;6.722;2023-04-01T23:39:56;3.40;99.90
64796;DHT22;51229;51.980;6.722;2023-04-01T23:42:30;3.40;99.90
64796;DHT22;51229;51.980;6.722;2023-04-01T23:45:24;3.50;99.90
64796;DHT22;51229;51.980;6.722;2023-04-01T23:47:50;3.40;99.90
64796;DHT22;51229;51.980;6.722;2023-04-01T23:50:23;3.40;99.90
64796;DHT22;51229;51.980;6.722;2023-04-01T23:53:03;3.30;99.90
64796;DHT22;51229;51.980;6.722;2023-04-01T23:55:33;3.60;99.90
